Sabana De La Mar, Dominican Republic

7:59 PM AST on September 17, 2014 (GMT -0400)
Marina Puerto Bahia | Change Station
CLOSE
Current Station
Personal Weather Station
Location: Puerto Bahia, Samana
Elevation: 105 ft
Nearby Weather Stations

Elev 105 ft 19.20 °N, 69.35 °W | Updated 8 seconds ago

Scattered Clouds
Scattered Clouds
84.0 °F
Feels Like 91 °F
N
0.0
Wind Variable Wind from North
Gusts 5.0 mph

Today
High -- | Low -- °F
--% Chance of Precip.
Yesterday
High -- | Low -- °F
Precip. -- in
6:25 AM 6:38 PM
Waning Crescent, 32% visible
Pressure 29.89 in
Visibility 6.2 miles
Clouds Few 1800 ft
Scattered Clouds 30000 ft
Heat Index 91 °F
Dew Point 74 °F
Humidity 72%
Rainfall 0.46 in
Snow Depth Not available.
UV 0 out of 12
Pollen Not available.
Air Quality Not available.
Flu Activity Not available.
METAR MDCY 180000Z 00000KT 9999 FEW018 SCT300 28/25 Q1012

More Conditions Fewer Conditions

Pressure 29.89 in
Visibility 6.2 miles
Clouds Few 1800 ft
Scattered Clouds 30000 ft
Heat Index 91 °F
Dew Point 74 °F
Humidity 72%
Rainfall 0.46 in
Snow Depth Not available.
UV 0 out of 12
Pollen Not available.
Air Quality Not available.
Flu Activity Not available.
METAR MDCY 180000Z 00000KT 9999 FEW018 SCT300 28/25 Q1012

More Conditions Fewer Conditions

10-Day Weather Forecast

Almanac

Astronomy

Sep. 17, 2014 Rise Set
Actual Time 6:25 AM AST 6:38 PM AST
Civil Twilight 6:03 AM AST 7:00 PM AST
Nautical Twilight 5:38 AM AST 7:25 PM AST
Astronomical Twilight 5:12 AM AST 7:51 PM AST
Moon 12:56 AM AST 2:12 PM AST
Length of Visible Light 12h 56m
Length of Day
12h 12m
Tomorrow will be 1m 5s shorter.
Waning Crescent, 32% of the Moon is Illuminated
Today
Waning Crescent
Sep 24
New
Oct 1
First Quarter
Oct 8
Full
Oct 15
Last Quarter

Today's Extremes

Country Highs Country Lows

Community

WunderPhotos

Upload Photos

1,754,198 photos uploaded!

Nearby

Snow Depth

Not available.

Earthquake Activity

City Distance Mag. Time & Date
No recent earthquake activity has been reported nearby.
Minimum magnitude displayed is 2.5.

Coastal Water Temperatures

Place Temperature
No Stations Reporting

Nearby Weather Stations